sensor_id;sensor_type;location;lat;lon;timestamp;temperature;humidity
13186;DHT22;6658;53.080;7.428;2023-09-07T00:01:30;19.20;99.90
13186;DHT22;6658;53.080;7.428;2023-09-07T00:03:56;19.20;99.90
13186;DHT22;6658;53.080;7.428;2023-09-07T00:06:22;19.20;99.90
13186;DHT22;6658;53.080;7.428;2023-09-07T00:08:48;19.30;99.90
13186;DHT22;6658;53.080;7.428;2023-09-07T00:11:13;19.30;99.90
13186;DHT22;6658;53.080;7.428;2023-09-07T00:13:39;19.30;99.90
13186;DHT22;6658;53.080;7.428;2023-09-07T00:16:05;19.30;99.90
13186;DHT22;6658;53.080;7.428;2023-09-07T00:18:32;19.20;99.90
13186;DHT22;6658;53.080;7.428;2023-09-07T00:21:00;19.20;99.90
13186;DHT22;6658;53.080;7.428;2023-09-07T00:23:26;19.20;99.90
13186;DHT22;6658;53.080;7.428;2023-09-07T00:25:52;19.10;99.90
13186;DHT22;6658;53.080;7.428;2023-09-07T00:28:18;19.10;99.90
13186;DHT22;6658;53.080;7.428;2023-09-07T00:30:44;19.00;99.90
13186;DHT22;6658;53.080;7.428;2023-09-07T00:33:10;19.00;99.90
13186;DHT22;6658;53.080;7.428;2023-09-07T00:35:36;19.10;99.90
13186;DHT22;6658;53.080;7.428;2023-09-07T00:38:02;19.10;99.90
13186;DHT22;6658;53.080;7.428;2023-09-07T00:40:28;19.00;99.90
13186;DHT22;6658;53.080;7.428;2023-09-07T00:42:54;19.10;99.90
13186;DHT22;6658;53.080;7.428;2023-09-07T00:45:20;19.10;99.90
13186;DHT22;6658;53.080;7.428;2023-09-07T00:47:46;19.00;99.90
13186;DHT22;6658;53.080;7.428;2023-09-07T00:50:11;19.00;99.90
13186;DHT22;6658;53.080;7.428;2023-09-07T00:52:42;18.90;99.90
13186;DHT22;6658;53.080;7.428;2023-09-07T00:55:08;18.90;99.90
13186;DHT22;6658;53.080;7.428;2023-09-07T00:57:35;18.80;99.90
13186;DHT22;6658;53.080;7.428;2023-09-07T01:00:03;18.80;99.90
13186;DHT22;6658;53.080;7.428;2023-09-07T01:02:29;18.70;99.90
13186;DHT22;6658;53.080;7.428;2023-09-07T01:04:56;18.60;99.90
13186;DHT22;6658;53.080;7.428;2023-09-07T01:07:31;18.60;99.90
13186;DHT22;6658;53.080;7.428;2023-09-07T01:10:00;18.70;99.90
13186;DHT22;6658;53.080;7.428;2023-09-07T01:12:26;18.70;99.90
13186;DHT22;6658;53.080;7.428;2023-09-07T01:14:52;18.70;99.90
13186;DHT22;6658;53.080;7.428;2023-09-07T01:17:18;18.70;99.90
13186;DHT22;6658;53.080;7.428;2023-09-07T01:19:48;18.70;99.90
13186;DHT22;6658;53.080;7.428;2023-09-07T01:22:21;18.70;99.90
13186;DHT22;6658;53.080;7.428;2023-09-07T01:24:50;18.70;99.90
13186;DHT22;6658;53.080;7.428;2023-09-07T01:27:17;18.70;99.90
13186;DHT22;6658;53.080;7.428;2023-09-07T01:29:43;18.70;99.90
13186;DHT22;6658;53.080;7.428;2023-09-07T01:32:09;18.70;99.90
13186;DHT22;6658;53.080;7.428;2023-09-07T01:34:39;18.70;99.90
13186;DHT22;6658;53.080;7.428;2023-09-07T01:37:04;18.60;99.90
13186;DHT22;6658;53.080;7.428;2023-09-07T01:39:30;18.50;99.90
13186;DHT22;6658;53.080;7.428;2023-09-07T01:41:56;18.40;99.90
13186;DHT22;6658;53.080;7.428;2023-09-07T01:44:21;18.40;99.90
13186;DHT22;6658;53.080;7.428;2023-09-07T01:46:47;18.40;99.90
13186;DHT22;6658;53.080;7.428;2023-09-07T01:49:12;18.30;99.90
13186;DHT22;6658;53.080;7.428;2023-09-07T01:51:38;18.20;99.90
13186;DHT22;6658;53.080;7.428;2023-09-07T01:54:04;18.20;99.90
13186;DHT22;6658;53.080;7.428;2023-09-07T01:56:30;18.20;99.90
13186;DHT22;6658;53.080;7.428;2023-09-07T01:58:56;18.10;99.90
13186;DHT22;6658;53.080;7.428;2023-09-07T02:01:30;18.00;99.90
13186;DHT22;6658;53.080;7.428;2023-09-07T02:03:55;17.90;99.90
13186;DHT22;6658;53.080;7.428;2023-09-07T02:06:21;17.70;99.90
13186;DHT22;6658;53.080;7.428;2023-09-07T02:08:47;17.70;99.90
13186;DHT22;6658;53.080;7.428;2023-09-07T02:11:14;17.60;99.90
13186;DHT22;6658;53.080;7.428;2023-09-07T02:13:44;17.40;99.90
13186;DHT22;6658;53.080;7.428;2023-09-07T02:16:09;17.30;99.90
13186;DHT22;6658;53.080;7.428;2023-09-07T02:18:36;17.20;99.90
13186;DHT22;6658;53.080;7.428;2023-09-07T02:21:03;17.20;99.90
13186;DHT22;6658;53.080;7.428;2023-09-07T02:23:32;17.10;99.90
13186;DHT22;6658;53.080;7.428;2023-09-07T02:25:59;17.00;99.90
13186;DHT22;6658;53.080;7.428;2023-09-07T02:28:25;16.90;99.90
13186;DHT22;6658;53.080;7.428;2023-09-07T02:30:54;16.90;99.90
13186;DHT22;6658;53.080;7.428;2023-09-07T02:33:20;16.80;99.90
13186;DHT22;6658;53.080;7.428;2023-09-07T02:35:48;16.80;99.90
13186;DHT22;6658;53.080;7.428;2023-09-07T02:38:15;16.70;99.90
13186;DHT22;6658;53.080;7.428;2023-09-07T02:40:41;16.80;99.90
13186;DHT22;6658;53.080;7.428;2023-09-07T02:43:08;16.70;99.90
13186;DHT22;6658;53.080;7.428;2023-09-07T02:45:34;16.70;99.90
13186;DHT22;6658;53.080;7.428;2023-09-07T02:48:00;16.60;99.90
13186;DHT22;6658;53.080;7.428;2023-09-07T02:50:25;16.60;99.90
13186;DHT22;6658;53.080;7.428;2023-09-07T02:52:51;16.50;99.90
13186;DHT22;6658;53.080;7.428;2023-09-07T02:55:17;16.40;99.90
13186;DHT22;6658;53.080;7.428;2023-09-07T02:57:42;16.40;99.90
13186;DHT22;6658;53.080;7.428;2023-09-07T03:00:08;16.30;99.90
13186;DHT22;6658;53.080;7.428;2023-09-07T03:02:35;16.30;99.90
13186;DHT22;6658;53.080;7.428;2023-09-07T03:05:01;16.30;99.90
13186;DHT22;6658;53.080;7.428;2023-09-07T03:07:32;16.20;99.90
13186;DHT22;6658;53.080;7.428;2023-09-07T03:09:58;16.20;99.90
13186;DHT22;6658;53.080;7.428;2023-09-07T03:12:24;16.20;99.90
13186;DHT22;6658;53.080;7.428;2023-09-07T03:14:50;16.20;99.90
13186;DHT22;6658;53.080;7.428;2023-09-07T03:17:16;16.20;99.90
13186;DHT22;6658;53.080;7.428;2023-09-07T03:19:42;16.20;99.90
13186;DHT22;6658;53.080;7.428;2023-09-07T03:22:08;16.10;99.90
13186;DHT22;6658;53.080;7.428;2023-09-07T03:24:34;16.10;99.90
13186;DHT22;6658;53.080;7.428;2023-09-07T03:27:00;16.10;99.90
13186;DHT22;6658;53.080;7.428;2023-09-07T03:29:26;16.10;99.90
13186;DHT22;6658;53.080;7.428;2023-09-07T03:31:51;16.10;99.90
13186;DHT22;6658;53.080;7.428;2023-09-07T03:34:17;16.10;99.90
13186;DHT22;6658;53.080;7.428;2023-09-07T03:36:43;16.20;99.90
13186;DHT22;6658;53.080;7.428;2023-09-07T03:39:08;16.10;99.90
13186;DHT22;6658;53.080;7.428;2023-09-07T03:41:35;16.10;99.90
13186;DHT22;6658;53.080;7.428;2023-09-07T03:44:01;16.10;99.90
13186;DHT22;6658;53.080;7.428;2023-09-07T03:46:27;16.10;99.90
13186;DHT22;6658;53.080;7.428;2023-09-07T03:48:53;16.10;99.90
13186;DHT22;6658;53.080;7.428;2023-09-07T03:51:18;16.00;99.90
13186;DHT22;6658;53.080;7.428;2023-09-07T03:53:44;16.00;99.90
13186;DHT22;6658;53.080;7.428;2023-09-07T03:56:11;16.00;99.90
13186;DHT22;6658;53.080;7.428;2023-09-07T03:58:36;16.00;99.90
13186;DHT22;6658;53.080;7.428;2023-09-07T04:01:02;16.00;99.90
13186;DHT22;6658;53.080;7.428;2023-09-07T04:03:28;16.00;99.90
13186;DHT22;6658;53.080;7.428;2023-09-07T04:05:53;16.10;99.90
13186;DHT22;6658;53.080;7.428;2023-09-07T04:08:19;16.10;99.90
13186;DHT22;6658;53.080;7.428;2023-09-07T04:10:45;16.10;99.90
13186;DHT22;6658;53.080;7.428;2023-09-07T04:13:10;16.10;99.90
13186;DHT22;6658;53.080;7.428;2023-09-07T04:15:45;16.00;99.90
13186;DHT22;6658;53.080;7.428;2023-09-07T04:18:12;16.00;99.90
13186;DHT22;6658;53.080;7.428;2023-09-07T04:20:42;16.00;99.90
13186;DHT22;6658;53.080;7.428;2023-09-07T04:23:08;16.00;99.90
13186;DHT22;6658;53.080;7.428;2023-09-07T04:25:34;15.90;99.90
13186;DHT22;6658;53.080;7.428;2023-09-07T04:27:59;15.90;99.90
13186;DHT22;6658;53.080;7.428;2023-09-07T04:30:26;15.90;99.90
13186;DHT22;6658;53.080;7.428;2023-09-07T04:32:52;16.00;99.90
13186;DHT22;6658;53.080;7.428;2023-09-07T04:35:17;16.00;99.90
13186;DHT22;6658;53.080;7.428;2023-09-07T04:37:43;16.10;99.90
13186;DHT22;6658;53.080;7.428;2023-09-07T04:40:09;16.10;99.90
13186;DHT22;6658;53.080;7.428;2023-09-07T04:42:36;16.10;99.90
13186;DHT22;6658;53.080;7.428;2023-09-07T04:45:04;16.10;99.90
13186;DHT22;6658;53.080;7.428;2023-09-07T04:47:30;16.00;99.90
13186;DHT22;6658;53.080;7.428;2023-09-07T04:49:56;16.00;99.90
13186;DHT22;6658;53.080;7.428;2023-09-07T04:52:21;16.00;99.90
13186;DHT22;6658;53.080;7.428;2023-09-07T04:54:47;16.00;99.90
13186;DHT22;6658;53.080;7.428;2023-09-07T04:57:16;16.10;99.90
13186;DHT22;6658;53.080;7.428;2023-09-07T04:59:43;16.00;99.90
13186;DHT22;6658;53.080;7.428;2023-09-07T05:02:09;16.00;99.90
13186;DHT22;6658;53.080;7.428;2023-09-07T05:04:34;16.10;99.90
13186;DHT22;6658;53.080;7.428;2023-09-07T05:07:00;16.00;99.90
13186;DHT22;6658;53.080;7.428;2023-09-07T05:09:26;16.00;99.90
13186;DHT22;6658;53.080;7.428;2023-09-07T05:11:54;16.00;99.90
13186;DHT22;6658;53.080;7.428;2023-09-07T05:14:20;16.10;99.90
13186;DHT22;6658;53.080;7.428;2023-09-07T05:16:45;16.10;99.90
13186;DHT22;6658;53.080;7.428;2023-09-07T05:19:14;16.10;99.90
13186;DHT22;6658;53.080;7.428;2023-09-07T05:21:40;16.10;99.90
13186;DHT22;6658;53.080;7.428;2023-09-07T05:24:06;16.20;99.90
13186;DHT22;6658;53.080;7.428;2023-09-07T05:26:31;16.30;99.90
13186;DHT22;6658;53.080;7.428;2023-09-07T05:28:57;16.60;99.90
13186;DHT22;6658;53.080;7.428;2023-09-07T05:31:23;16.80;99.90
13186;DHT22;6658;53.080;7.428;2023-09-07T05:33:48;17.00;99.90
13186;DHT22;6658;53.080;7.428;2023-09-07T05:36:14;17.00;99.90
13186;DHT22;6658;53.080;7.428;2023-09-07T05:38:39;17.00;99.90
13186;DHT22;6658;53.080;7.428;2023-09-07T05:41:06;17.00;99.90
13186;DHT22;6658;53.080;7.428;2023-09-07T05:43:32;17.00;99.90
13186;DHT22;6658;53.080;7.428;2023-09-07T05:45:58;17.10;99.90
13186;DHT22;6658;53.080;7.428;2023-09-07T05:48:23;17.10;99.90
13186;DHT22;6658;53.080;7.428;2023-09-07T05:50:49;17.20;99.90
13186;DHT22;6658;53.080;7.428;2023-09-07T05:53:15;17.20;99.90
13186;DHT22;6658;53.080;7.428;2023-09-07T05:55:40;17.20;99.90
13186;DHT22;6658;53.080;7.428;2023-09-07T05:58:08;17.30;99.90
13186;DHT22;6658;53.080;7.428;2023-09-07T06:00:37;17.30;99.90
13186;DHT22;6658;53.080;7.428;2023-09-07T06:03:05;17.40;99.90
13186;DHT22;6658;53.080;7.428;2023-09-07T06:05:31;17.40;99.90
13186;DHT22;6658;53.080;7.428;2023-09-07T06:07:57;17.40;99.90
13186;DHT22;6658;53.080;7.428;2023-09-07T06:10:23;17.50;99.90
13186;DHT22;6658;53.080;7.428;2023-09-07T06:12:48;17.50;99.90
13186;DHT22;6658;53.080;7.428;2023-09-07T06:15:14;17.60;99.90
13186;DHT22;6658;53.080;7.428;2023-09-07T06:17:40;17.70;99.90
13186;DHT22;6658;53.080;7.428;2023-09-07T06:20:06;17.70;99.90
13186;DHT22;6658;53.080;7.428;2023-09-07T06:22:32;17.80;99.90
13186;DHT22;6658;53.080;7.428;2023-09-07T06:24:58;17.80;99.90
13186;DHT22;6658;53.080;7.428;2023-09-07T06:27:23;17.90;99.90
13186;DHT22;6658;53.080;7.428;2023-09-07T06:29:49;18.00;99.90
13186;DHT22;6658;53.080;7.428;2023-09-07T06:32:16;18.10;99.90
13186;DHT22;6658;53.080;7.428;2023-09-07T06:34:42;18.40;99.90
13186;DHT22;6658;53.080;7.428;2023-09-07T06:37:07;18.70;99.90
13186;DHT22;6658;53.080;7.428;2023-09-07T06:39:34;19.00;99.90
13186;DHT22;6658;53.080;7.428;2023-09-07T06:41:59;19.40;99.90
13186;DHT22;6658;53.080;7.428;2023-09-07T06:44:25;19.80;99.90
13186;DHT22;6658;53.080;7.428;2023-09-07T06:46:51;20.00;99.90
13186;DHT22;6658;53.080;7.428;2023-09-07T06:49:16;20.20;99.90
13186;DHT22;6658;53.080;7.428;2023-09-07T06:51:42;20.40;99.90
13186;DHT22;6658;53.080;7.428;2023-09-07T06:54:08;20.60;99.90
13186;DHT22;6658;53.080;7.428;2023-09-07T06:56:34;20.80;99.90
13186;DHT22;6658;53.080;7.428;2023-09-07T06:59:00;21.10;99.90
13186;DHT22;6658;53.080;7.428;2023-09-07T07:01:26;21.20;99.90
13186;DHT22;6658;53.080;7.428;2023-09-07T07:03:52;21.50;99.90
13186;DHT22;6658;53.080;7.428;2023-09-07T07:06:18;21.60;99.90
13186;DHT22;6658;53.080;7.428;2023-09-07T07:08:44;21.60;99.90
13186;DHT22;6658;53.080;7.428;2023-09-07T07:11:10;21.60;99.90
13186;DHT22;6658;53.080;7.428;2023-09-07T07:13:36;21.90;99.90
13186;DHT22;6658;53.080;7.428;2023-09-07T07:16:02;22.00;99.90
13186;DHT22;6658;53.080;7.428;2023-09-07T07:18:30;22.30;99.90
13186;DHT22;6658;53.080;7.428;2023-09-07T07:20:56;22.50;99.90
13186;DHT22;6658;53.080;7.428;2023-09-07T07:23:21;22.40;99.90
13186;DHT22;6658;53.080;7.428;2023-09-07T07:25:47;22.50;99.90
13186;DHT22;6658;53.080;7.428;2023-09-07T07:28:13;22.60;99.90
13186;DHT22;6658;53.080;7.428;2023-09-07T07:30:39;22.90;99.90
13186;DHT22;6658;53.080;7.428;2023-09-07T07:33:08;22.90;99.90
13186;DHT22;6658;53.080;7.428;2023-09-07T07:35:35;22.90;99.90
13186;DHT22;6658;53.080;7.428;2023-09-07T07:38:02;23.20;99.90
13186;DHT22;6658;53.080;7.428;2023-09-07T07:40:32;23.50;99.90
13186;DHT22;6658;53.080;7.428;2023-09-07T07:42:58;23.60;99.90
13186;DHT22;6658;53.080;7.428;2023-09-07T07:45:23;23.90;99.90
13186;DHT22;6658;53.080;7.428;2023-09-07T07:47:50;24.10;99.90
13186;DHT22;6658;53.080;7.428;2023-09-07T07:50:16;24.10;99.90
13186;DHT22;6658;53.080;7.428;2023-09-07T07:52:42;24.00;99.90
13186;DHT22;6658;53.080;7.428;2023-09-07T07:55:08;24.00;99.90
13186;DHT22;6658;53.080;7.428;2023-09-07T07:57:34;24.00;99.90
13186;DHT22;6658;53.080;7.428;2023-09-07T08:00:00;24.10;99.90
13186;DHT22;6658;53.080;7.428;2023-09-07T08:02:26;24.20;99.90
13186;DHT22;6658;53.080;7.428;2023-09-07T08:04:51;24.30;99.90
13186;DHT22;6658;53.080;7.428;2023-09-07T08:07:17;24.40;99.90
13186;DHT22;6658;53.080;7.428;2023-09-07T08:09:43;24.60;99.90
13186;DHT22;6658;53.080;7.428;2023-09-07T08:12:09;24.90;99.90
13186;DHT22;6658;53.080;7.428;2023-09-07T08:14:38;25.00;99.90
13186;DHT22;6658;53.080;7.428;2023-09-07T08:17:04;25.20;99.90
13186;DHT22;6658;53.080;7.428;2023-09-07T08:19:29;25.60;99.90
13186;DHT22;6658;53.080;7.428;2023-09-07T08:21:55;25.70;99.90
13186;DHT22;6658;53.080;7.428;2023-09-07T08:24:21;25.60;99.90
13186;DHT22;6658;53.080;7.428;2023-09-07T08:26:47;25.80;99.90
13186;DHT22;6658;53.080;7.428;2023-09-07T08:29:17;25.90;99.90
13186;DHT22;6658;53.080;7.428;2023-09-07T08:31:45;26.00;99.90
13186;DHT22;6658;53.080;7.428;2023-09-07T08:34:13;26.30;99.90
13186;DHT22;6658;53.080;7.428;2023-09-07T08:36:40;26.40;99.90
13186;DHT22;6658;53.080;7.428;2023-09-07T08:39:06;26.30;99.90
13186;DHT22;6658;53.080;7.428;2023-09-07T08:41:37;26.50;99.90
13186;DHT22;6658;53.080;7.428;2023-09-07T08:44:19;27.00;99.90
13186;DHT22;6658;53.080;7.428;2023-09-07T08:46:49;27.70;99.90
13186;DHT22;6658;53.080;7.428;2023-09-07T08:49:15;28.50;99.90
13186;DHT22;6658;53.080;7.428;2023-09-07T08:51:45;28.70;99.90
13186;DHT22;6658;53.080;7.428;2023-09-07T08:54:12;28.50;99.90
13186;DHT22;6658;53.080;7.428;2023-09-07T08:56:37;28.70;99.90
13186;DHT22;6658;53.080;7.428;2023-09-07T08:59:03;29.10;99.90
13186;DHT22;6658;53.080;7.428;2023-09-07T09:01:32;29.10;99.90
13186;DHT22;6658;53.080;7.428;2023-09-07T09:03:58;28.70;99.90
13186;DHT22;6658;53.080;7.428;2023-09-07T09:06:24;28.80;99.90
13186;DHT22;6658;53.080;7.428;2023-09-07T09:08:55;28.70;99.90
13186;DHT22;6658;53.080;7.428;2023-09-07T09:11:22;29.10;99.90
13186;DHT22;6658;53.080;7.428;2023-09-07T09:13:49;29.60;99.90
13186;DHT22;6658;53.080;7.428;2023-09-07T09:16:16;30.00;99.90
13186;DHT22;6658;53.080;7.428;2023-09-07T09:19:08;30.50;99.90
13186;DHT22;6658;53.080;7.428;2023-09-07T09:21:34;30.60;99.90
13186;DHT22;6658;53.080;7.428;2023-09-07T09:24:00;31.50;99.10
13186;DHT22;6658;53.080;7.428;2023-09-07T09:26:28;31.40;97.40
13186;DHT22;6658;53.080;7.428;2023-09-07T09:28:56;30.70;98.70
13186;DHT22;6658;53.080;7.428;2023-09-07T09:31:21;30.40;99.90
13186;DHT22;6658;53.080;7.428;2023-09-07T09:33:50;31.00;98.90
13186;DHT22;6658;53.080;7.428;2023-09-07T09:36:18;31.70;96.90
13186;DHT22;6658;53.080;7.428;2023-09-07T09:38:51;31.00;98.20
13186;DHT22;6658;53.080;7.428;2023-09-07T09:41:19;31.00;99.40
13186;DHT22;6658;53.080;7.428;2023-09-07T09:43:48;31.30;99.90
13186;DHT22;6658;53.080;7.428;2023-09-07T09:46:17;32.10;97.80
13186;DHT22;6658;53.080;7.428;2023-09-07T09:48:44;31.60;97.90
13186;DHT22;6658;53.080;7.428;2023-09-07T09:51:10;31.80;96.60
13186;DHT22;6658;53.080;7.428;2023-09-07T09:53:37;31.40;97.70
13186;DHT22;6658;53.080;7.428;2023-09-07T09:56:03;31.40;98.10
13186;DHT22;6658;53.080;7.428;2023-09-07T09:58:29;32.10;96.80
13186;DHT22;6658;53.080;7.428;2023-09-07T10:00:56;32.60;97.00
13186;DHT22;6658;53.080;7.428;2023-09-07T10:03:31;32.80;95.80
13186;DHT22;6658;53.080;7.428;2023-09-07T10:06:10;31.70;96.70
13186;DHT22;6658;53.080;7.428;2023-09-07T10:08:36;31.70;97.00
13186;DHT22;6658;53.080;7.428;2023-09-07T10:11:08;31.40;96.80
13186;DHT22;6658;53.080;7.428;2023-09-07T10:13:35;31.80;96.90
13186;DHT22;6658;53.080;7.428;2023-09-07T10:16:01;32.00;95.90
13186;DHT22;6658;53.080;7.428;2023-09-07T10:18:34;32.00;95.60
13186;DHT22;6658;53.080;7.428;2023-09-07T10:21:01;31.40;96.70
13186;DHT22;6658;53.080;7.428;2023-09-07T10:23:39;31.10;96.80
13186;DHT22;6658;53.080;7.428;2023-09-07T10:26:14;31.70;96.80
13186;DHT22;6658;53.080;7.428;2023-09-07T10:28:41;32.40;94.90
13186;DHT22;6658;53.080;7.428;2023-09-07T10:33:39;31.70;94.90
13186;DHT22;6658;53.080;7.428;2023-09-07T10:36:05;30.90;96.20
13186;DHT22;6658;53.080;7.428;2023-09-07T10:38:32;30.70;97.40
13186;DHT22;6658;53.080;7.428;2023-09-07T10:41:02;30.60;97.60
13186;DHT22;6658;53.080;7.428;2023-09-07T10:43:46;30.20;98.70
13186;DHT22;6658;53.080;7.428;2023-09-07T10:46:15;29.50;99.70
13186;DHT22;6658;53.080;7.428;2023-09-07T10:48:43;29.00;99.60
13186;DHT22;6658;53.080;7.428;2023-09-07T10:51:09;28.80;99.90
13186;DHT22;6658;53.080;7.428;2023-09-07T10:53:38;28.60;99.90
13186;DHT22;6658;53.080;7.428;2023-09-07T10:56:05;28.80;99.90
13186;DHT22;6658;53.080;7.428;2023-09-07T10:58:32;29.40;99.90
13186;DHT22;6658;53.080;7.428;2023-09-07T11:01:02;29.40;99.30
13186;DHT22;6658;53.080;7.428;2023-09-07T11:03:31;28.90;99.90
13186;DHT22;6658;53.080;7.428;2023-09-07T11:06:17;28.40;99.90
13186;DHT22;6658;53.080;7.428;2023-09-07T11:08:47;28.10;99.90
13186;DHT22;6658;53.080;7.428;2023-09-07T11:11:13;27.90;99.90
13186;DHT22;6658;53.080;7.428;2023-09-07T11:13:39;27.90;99.90
13186;DHT22;6658;53.080;7.428;2023-09-07T11:16:08;28.00;99.90
13186;DHT22;6658;53.080;7.428;2023-09-07T11:18:34;27.90;99.90
13186;DHT22;6658;53.080;7.428;2023-09-07T11:21:05;27.90;99.90
13186;DHT22;6658;53.080;7.428;2023-09-07T11:23:33;28.00;99.90
13186;DHT22;6658;53.080;7.428;2023-09-07T11:26:05;28.00;99.90
13186;DHT22;6658;53.080;7.428;2023-09-07T11:28:32;27.90;99.90
13186;DHT22;6658;53.080;7.428;2023-09-07T11:30:58;27.80;99.90
13186;DHT22;6658;53.080;7.428;2023-09-07T11:33:25;27.80;99.90
13186;DHT22;6658;53.080;7.428;2023-09-07T11:36:11;27.60;99.90
13186;DHT22;6658;53.080;7.428;2023-09-07T11:38:43;27.70;99.90
13186;DHT22;6658;53.080;7.428;2023-09-07T11:41:09;27.70;99.90
13186;DHT22;6658;53.080;7.428;2023-09-07T11:43:34;27.90;99.90
13186;DHT22;6658;53.080;7.428;2023-09-07T11:46:00;27.90;99.90
13186;DHT22;6658;53.080;7.428;2023-09-07T11:48:26;28.10;99.90
13186;DHT22;6658;53.080;7.428;2023-09-07T11:50:54;28.20;99.90
13186;DHT22;6658;53.080;7.428;2023-09-07T11:53:19;28.30;99.90
13186;DHT22;6658;53.080;7.428;2023-09-07T11:55:45;28.40;99.90
13186;DHT22;6658;53.080;7.428;2023-09-07T11:58:11;28.30;99.90
13186;DHT22;6658;53.080;7.428;2023-09-07T12:00:36;28.30;99.90
13186;DHT22;6658;53.080;7.428;2023-09-07T12:03:02;28.30;99.90
13186;DHT22;6658;53.080;7.428;2023-09-07T12:05:28;28.30;99.90
13186;DHT22;6658;53.080;7.428;2023-09-07T12:07:54;28.30;99.90
13186;DHT22;6658;53.080;7.428;2023-09-07T12:10:20;28.20;99.90
13186;DHT22;6658;53.080;7.428;2023-09-07T12:12:46;28.20;99.90
13186;DHT22;6658;53.080;7.428;2023-09-07T12:15:12;28.20;99.90
13186;DHT22;6658;53.080;7.428;2023-09-07T12:17:38;28.20;99.90
13186;DHT22;6658;53.080;7.428;2023-09-07T12:20:04;28.30;99.90
13186;DHT22;6658;53.080;7.428;2023-09-07T12:22:36;28.40;99.90
13186;DHT22;6658;53.080;7.428;2023-09-07T12:25:04;28.50;99.90
13186;DHT22;6658;53.080;7.428;2023-09-07T12:27:33;28.50;99.60
13186;DHT22;6658;53.080;7.428;2023-09-07T12:30:01;28.60;99.90
13186;DHT22;6658;53.080;7.428;2023-09-07T12:32:27;28.60;99.30
13186;DHT22;6658;53.080;7.428;2023-09-07T12:34:53;28.60;99.10
13186;DHT22;6658;53.080;7.428;2023-09-07T12:37:19;28.60;98.90
13186;DHT22;6658;53.080;7.428;2023-09-07T12:39:44;28.60;98.50
13186;DHT22;6658;53.080;7.428;2023-09-07T12:42:10;28.60;97.90
13186;DHT22;6658;53.080;7.428;2023-09-07T12:44:36;28.50;98.30
13186;DHT22;6658;53.080;7.428;2023-09-07T12:47:01;28.50;97.80
13186;DHT22;6658;53.080;7.428;2023-09-07T12:49:27;28.60;97.90
13186;DHT22;6658;53.080;7.428;2023-09-07T12:51:53;28.60;97.30
13186;DHT22;6658;53.080;7.428;2023-09-07T12:54:18;28.60;96.50
13186;DHT22;6658;53.080;7.428;2023-09-07T12:56:44;28.70;97.80
13186;DHT22;6658;53.080;7.428;2023-09-07T12:59:10;28.80;98.80
13186;DHT22;6658;53.080;7.428;2023-09-07T13:01:36;28.90;98.70
13186;DHT22;6658;53.080;7.428;2023-09-07T13:04:02;28.80;98.70
13186;DHT22;6658;53.080;7.428;2023-09-07T13:06:28;28.90;97.80
13186;DHT22;6658;53.080;7.428;2023-09-07T13:08:54;28.90;97.90
13186;DHT22;6658;53.080;7.428;2023-09-07T13:11:19;28.90;98.70
13186;DHT22;6658;53.080;7.428;2023-09-07T13:13:45;28.80;98.90
13186;DHT22;6658;53.080;7.428;2023-09-07T13:16:11;28.90;97.50
13186;DHT22;6658;53.080;7.428;2023-09-07T13:18:37;28.90;98.30
13186;DHT22;6658;53.080;7.428;2023-09-07T13:21:03;28.80;98.70
13186;DHT22;6658;53.080;7.428;2023-09-07T13:23:30;28.90;99.20
13186;DHT22;6658;53.080;7.428;2023-09-07T13:25:56;28.90;98.80
13186;DHT22;6658;53.080;7.428;2023-09-07T13:28:23;29.00;98.70
13186;DHT22;6658;53.080;7.428;2023-09-07T13:30:52;29.10;99.20
13186;DHT22;6658;53.080;7.428;2023-09-07T13:33:18;29.10;98.70
13186;DHT22;6658;53.080;7.428;2023-09-07T13:35:44;29.10;98.30
13186;DHT22;6658;53.080;7.428;2023-09-07T13:38:10;29.10;98.30
13186;DHT22;6658;53.080;7.428;2023-09-07T13:40:36;29.10;98.40
13186;DHT22;6658;53.080;7.428;2023-09-07T13:43:02;29.00;98.00
13186;DHT22;6658;53.080;7.428;2023-09-07T13:45:27;29.00;98.50
13186;DHT22;6658;53.080;7.428;2023-09-07T13:47:55;28.90;97.90
13186;DHT22;6658;53.080;7.428;2023-09-07T13:50:21;28.80;97.70
13186;DHT22;6658;53.080;7.428;2023-09-07T13:52:48;28.70;97.90
13186;DHT22;6658;53.080;7.428;2023-09-07T13:55:14;28.70;98.50
13186;DHT22;6658;53.080;7.428;2023-09-07T13:57:40;28.70;98.90
13186;DHT22;6658;53.080;7.428;2023-09-07T14:00:06;28.70;98.00
13186;DHT22;6658;53.080;7.428;2023-09-07T14:02:32;28.70;98.40
13186;DHT22;6658;53.080;7.428;2023-09-07T14:04:58;28.70;98.50
13186;DHT22;6658;53.080;7.428;2023-09-07T14:07:24;28.60;98.70
13186;DHT22;6658;53.080;7.428;2023-09-07T14:09:52;28.60;98.40
13186;DHT22;6658;53.080;7.428;2023-09-07T14:12:17;28.60;98.70
13186;DHT22;6658;53.080;7.428;2023-09-07T14:14:43;28.60;99.10
13186;DHT22;6658;53.080;7.428;2023-09-07T14:17:09;28.60;99.00
13186;DHT22;6658;53.080;7.428;2023-09-07T14:19:34;28.70;99.20
13186;DHT22;6658;53.080;7.428;2023-09-07T14:22:00;28.70;98.90
13186;DHT22;6658;53.080;7.428;2023-09-07T14:24:26;28.70;98.90
13186;DHT22;6658;53.080;7.428;2023-09-07T14:26:51;28.70;98.90
13186;DHT22;6658;53.080;7.428;2023-09-07T14:29:18;28.70;99.00
13186;DHT22;6658;53.080;7.428;2023-09-07T14:31:43;28.70;99.20
13186;DHT22;6658;53.080;7.428;2023-09-07T14:34:13;28.60;98.90
13186;DHT22;6658;53.080;7.428;2023-09-07T14:36:39;28.60;99.90
13186;DHT22;6658;53.080;7.428;2023-09-07T14:39:08;28.60;99.90
13186;DHT22;6658;53.080;7.428;2023-09-07T14:41:35;28.60;99.90
13186;DHT22;6658;53.080;7.428;2023-09-07T14:44:01;28.60;99.90
13186;DHT22;6658;53.080;7.428;2023-09-07T14:46:26;28.60;99.50
13186;DHT22;6658;53.080;7.428;2023-09-07T14:48:52;28.60;99.80
13186;DHT22;6658;53.080;7.428;2023-09-07T14:51:18;28.60;99.90
13186;DHT22;6658;53.080;7.428;2023-09-07T14:53:44;28.60;99.90
13186;DHT22;6658;53.080;7.428;2023-09-07T14:56:10;28.60;99.90
13186;DHT22;6658;53.080;7.428;2023-09-07T14:58:36;28.70;99.90
13186;DHT22;6658;53.080;7.428;2023-09-07T15:01:02;28.70;99.90
13186;DHT22;6658;53.080;7.428;2023-09-07T15:03:29;28.60;99.90
13186;DHT22;6658;53.080;7.428;2023-09-07T15:05:54;28.50;99.90
13186;DHT22;6658;53.080;7.428;2023-09-07T15:08:20;28.40;99.90
13186;DHT22;6658;53.080;7.428;2023-09-07T15:10:46;28.30;99.90
13186;DHT22;6658;53.080;7.428;2023-09-07T15:13:12;28.30;99.90
13186;DHT22;6658;53.080;7.428;2023-09-07T15:15:37;28.30;99.90
13186;DHT22;6658;53.080;7.428;2023-09-07T15:18:06;28.30;99.90
13186;DHT22;6658;53.080;7.428;2023-09-07T15:20:32;28.30;99.90
13186;DHT22;6658;53.080;7.428;2023-09-07T15:22:58;28.20;99.90
13186;DHT22;6658;53.080;7.428;2023-09-07T15:25:24;28.10;99.90
13186;DHT22;6658;53.080;7.428;2023-09-07T15:27:49;28.10;99.90
13186;DHT22;6658;53.080;7.428;2023-09-07T15:30:16;28.00;99.90
13186;DHT22;6658;53.080;7.428;2023-09-07T15:32:41;28.00;99.90
13186;DHT22;6658;53.080;7.428;2023-09-07T15:35:08;27.90;99.90
13186;DHT22;6658;53.080;7.428;2023-09-07T15:37:33;27.90;99.90
13186;DHT22;6658;53.080;7.428;2023-09-07T15:39:59;27.90;99.90
13186;DHT22;6658;53.080;7.428;2023-09-07T15:42:25;27.90;99.90
13186;DHT22;6658;53.080;7.428;2023-09-07T15:44:54;27.90;99.90